sensor_id;sensor_type;location;lat;lon;timestamp;P1;durP1;ratioP1;P2;durP2;ratioP2
74908;SDS011;63468;52.058;4.824;2023-05-20T00:01:54;14.05;;;10.35;;
74908;SDS011;63468;52.058;4.824;2023-05-20T00:04:19;16.17;;;9.93;;
74908;SDS011;63468;52.058;4.824;2023-05-20T00:06:44;15.15;;;9.63;;
74908;SDS011;63468;52.058;4.824;2023-05-20T00:09:09;14.30;;;11.00;;
74908;SDS011;63468;52.058;4.824;2023-05-20T00:11:35;14.40;;;9.93;;
74908;SDS011;63468;52.058;4.824;2023-05-20T00:14:00;16.42;;;10.27;;
74908;SDS011;63468;52.058;4.824;2023-05-20T00:16:25;13.48;;;8.75;;
74908;SDS011;63468;52.058;4.824;2023-05-20T00:18:51;17.58;;;9.10;;
74908;SDS011;63468;52.058;4.824;2023-05-20T00:21:17;15.18;;;9.35;;
74908;SDS011;63468;52.058;4.824;2023-05-20T00:23:42;14.52;;;9.52;;
74908;SDS011;63468;52.058;4.824;2023-05-20T00:26:07;11.43;;;8.90;;
74908;SDS011;63468;52.058;4.824;2023-05-20T00:28:33;13.18;;;9.52;;
74908;SDS011;63468;52.058;4.824;2023-05-20T00:30:58;16.23;;;9.75;;
74908;SDS011;63468;52.058;4.824;2023-05-20T00:33:23;14.50;;;9.38;;
74908;SDS011;63468;52.058;4.824;2023-05-20T00:35:48;19.00;;;10.23;;
74908;SDS011;63468;52.058;4.824;2023-05-20T00:38:14;14.73;;;9.80;;
74908;SDS011;63468;52.058;4.824;2023-05-20T00:40:39;16.60;;;9.65;;
74908;SDS011;63468;52.058;4.824;2023-05-20T00:43:04;19.55;;;9.80;;
74908;SDS011;63468;52.058;4.824;2023-05-20T00:45:30;19.50;;;10.25;;
74908;SDS011;63468;52.058;4.824;2023-05-20T00:47:56;16.55;;;10.05;;
74908;SDS011;63468;52.058;4.824;2023-05-20T00:50:23;14.75;;;9.43;;
74908;SDS011;63468;52.058;4.824;2023-05-20T00:52:48;17.30;;;10.30;;
74908;SDS011;63468;52.058;4.824;2023-05-20T00:55:15;16.17;;;11.55;;
74908;SDS011;63468;52.058;4.824;2023-05-20T00:57:40;16.98;;;9.43;;
74908;SDS011;63468;52.058;4.824;2023-05-20T01:00:06;17.50;;;10.68;;
74908;SDS011;63468;52.058;4.824;2023-05-20T01:02:32;17.50;;;10.00;;
74908;SDS011;63468;52.058;4.824;2023-05-20T01:04:57;17.73;;;9.85;;
74908;SDS011;63468;52.058;4.824;2023-05-20T01:07:23;16.65;;;9.82;;
74908;SDS011;63468;52.058;4.824;2023-05-20T01:09:49;14.65;;;10.32;;
74908;SDS011;63468;52.058;4.824;2023-05-20T01:12:17;12.55;;;9.05;;
74908;SDS011;63468;52.058;4.824;2023-05-20T01:15:09;14.85;;;10.43;;
74908;SDS011;63468;52.058;4.824;2023-05-20T01:17:37;15.77;;;9.57;;
74908;SDS011;63468;52.058;4.824;2023-05-20T01:20:05;18.08;;;10.38;;
74908;SDS011;63468;52.058;4.824;2023-05-20T01:22:35;17.77;;;9.65;;
74908;SDS011;63468;52.058;4.824;2023-05-20T01:25:01;14.65;;;9.40;;
74908;SDS011;63468;52.058;4.824;2023-05-20T01:27:26;14.07;;;9.65;;
74908;SDS011;63468;52.058;4.824;2023-05-20T01:29:54;14.00;;;10.63;;
74908;SDS011;63468;52.058;4.824;2023-05-20T01:32:21;14.38;;;9.75;;
74908;SDS011;63468;52.058;4.824;2023-05-20T01:34:51;14.15;;;9.70;;
74908;SDS011;63468;52.058;4.824;2023-05-20T01:37:20;12.63;;;10.13;;
74908;SDS011;63468;52.058;4.824;2023-05-20T01:39:46;19.65;;;10.88;;
74908;SDS011;63468;52.058;4.824;2023-05-20T01:42:13;17.00;;;10.60;;
74908;SDS011;63468;52.058;4.824;2023-05-20T01:44:39;13.38;;;10.00;;
74908;SDS011;63468;52.058;4.824;2023-05-20T01:47:04;15.23;;;10.45;;
74908;SDS011;63468;52.058;4.824;2023-05-20T01:49:30;14.73;;;9.88;;
74908;SDS011;63468;52.058;4.824;2023-05-20T01:51:55;19.35;;;10.50;;
74908;SDS011;63468;52.058;4.824;2023-05-20T01:54:21;16.02;;;9.75;;
74908;SDS011;63468;52.058;4.824;2023-05-20T01:56:46;15.68;;;10.55;;
74908;SDS011;63468;52.058;4.824;2023-05-20T01:59:11;17.98;;;10.35;;
74908;SDS011;63468;52.058;4.824;2023-05-20T02:01:37;15.85;;;10.32;;
74908;SDS011;63468;52.058;4.824;2023-05-20T02:04:02;16.88;;;10.32;;
74908;SDS011;63468;52.058;4.824;2023-05-20T02:06:27;18.73;;;10.30;;
74908;SDS011;63468;52.058;4.824;2023-05-20T02:08:53;13.98;;;8.90;;
74908;SDS011;63468;52.058;4.824;2023-05-20T02:11:18;18.77;;;9.95;;
74908;SDS011;63468;52.058;4.824;2023-05-20T02:13:44;16.63;;;10.23;;
74908;SDS011;63468;52.058;4.824;2023-05-20T02:16:09;17.10;;;10.85;;
74908;SDS011;63468;52.058;4.824;2023-05-20T02:18:34;17.52;;;10.93;;
74908;SDS011;63468;52.058;4.824;2023-05-20T02:21:03;18.33;;;9.90;;
74908;SDS011;63468;52.058;4.824;2023-05-20T02:23:29;15.98;;;8.98;;
74908;SDS011;63468;52.058;4.824;2023-05-20T02:25:54;16.15;;;10.05;;
74908;SDS011;63468;52.058;4.824;2023-05-20T02:28:20;16.45;;;10.13;;
74908;SDS011;63468;52.058;4.824;2023-05-20T02:30:45;14.57;;;9.38;;
74908;SDS011;63468;52.058;4.824;2023-05-20T02:33:11;16.65;;;9.10;;
74908;SDS011;63468;52.058;4.824;2023-05-20T02:35:36;14.65;;;9.80;;
74908;SDS011;63468;52.058;4.824;2023-05-20T02:38:01;21.48;;;11.25;;
74908;SDS011;63468;52.058;4.824;2023-05-20T02:40:27;16.35;;;9.98;;
74908;SDS011;63468;52.058;4.824;2023-05-20T02:42:52;16.50;;;10.00;;
74908;SDS011;63468;52.058;4.824;2023-05-20T02:45:17;15.98;;;10.32;;
74908;SDS011;63468;52.058;4.824;2023-05-20T02:47:43;14.32;;;9.52;;
74908;SDS011;63468;52.058;4.824;2023-05-20T02:50:08;15.93;;;10.00;;
74908;SDS011;63468;52.058;4.824;2023-05-20T02:52:34;16.73;;;11.07;;
74908;SDS011;63468;52.058;4.824;2023-05-20T02:55:00;15.02;;;10.65;;
74908;SDS011;63468;52.058;4.824;2023-05-20T02:57:25;17.83;;;10.30;;
74908;SDS011;63468;52.058;4.824;2023-05-20T02:59:52;13.45;;;9.13;;
74908;SDS011;63468;52.058;4.824;2023-05-20T03:02:19;16.33;;;9.55;;
74908;SDS011;63468;52.058;4.824;2023-05-20T03:04:44;18.70;;;10.20;;
74908;SDS011;63468;52.058;4.824;2023-05-20T03:07:10;15.73;;;10.18;;
74908;SDS011;63468;52.058;4.824;2023-05-20T03:09:35;19.23;;;9.65;;
74908;SDS011;63468;52.058;4.824;2023-05-20T03:12:01;14.80;;;9.50;;
74908;SDS011;63468;52.058;4.824;2023-05-20T03:14:26;16.10;;;9.40;;
74908;SDS011;63468;52.058;4.824;2023-05-20T03:16:52;14.90;;;10.10;;
74908;SDS011;63468;52.058;4.824;2023-05-20T03:19:19;20.73;;;10.90;;
74908;SDS011;63468;52.058;4.824;2023-05-20T03:21:44;19.58;;;10.10;;
74908;SDS011;63468;52.058;4.824;2023-05-20T03:24:10;19.35;;;9.38;;
74908;SDS011;63468;52.058;4.824;2023-05-20T03:26:35;17.10;;;10.18;;
74908;SDS011;63468;52.058;4.824;2023-05-20T03:29:04;16.90;;;9.25;;
74908;SDS011;63468;52.058;4.824;2023-05-20T03:31:29;15.88;;;10.13;;
74908;SDS011;63468;52.058;4.824;2023-05-20T03:33:54;15.30;;;10.55;;
74908;SDS011;63468;52.058;4.824;2023-05-20T03:36:20;15.30;;;9.18;;
74908;SDS011;63468;52.058;4.824;2023-05-20T03:38:45;16.65;;;9.15;;
74908;SDS011;63468;52.058;4.824;2023-05-20T03:41:10;16.27;;;9.90;;
74908;SDS011;63468;52.058;4.824;2023-05-20T03:43:36;16.52;;;9.07;;
74908;SDS011;63468;52.058;4.824;2023-05-20T03:46:01;22.05;;;9.75;;
74908;SDS011;63468;52.058;4.824;2023-05-20T03:48:26;15.93;;;9.80;;
74908;SDS011;63468;52.058;4.824;2023-05-20T03:50:51;15.88;;;9.20;;
74908;SDS011;63468;52.058;4.824;2023-05-20T03:53:17;13.30;;;9.48;;
74908;SDS011;63468;52.058;4.824;2023-05-20T03:55:44;17.30;;;9.70;;
74908;SDS011;63468;52.058;4.824;2023-05-20T03:58:09;19.15;;;10.52;;
74908;SDS011;63468;52.058;4.824;2023-05-20T04:00:34;18.80;;;8.70;;
74908;SDS011;63468;52.058;4.824;2023-05-20T04:03:00;13.70;;;9.73;;
74908;SDS011;63468;52.058;4.824;2023-05-20T04:05:25;15.35;;;9.23;;
74908;SDS011;63468;52.058;4.824;2023-05-20T04:07:51;26.90;;;9.85;;
74908;SDS011;63468;52.058;4.824;2023-05-20T04:10:17;13.30;;;9.20;;
74908;SDS011;63468;52.058;4.824;2023-05-20T04:12:43;13.90;;;8.88;;
74908;SDS011;63468;52.058;4.824;2023-05-20T04:15:08;18.95;;;10.85;;
74908;SDS011;63468;52.058;4.824;2023-05-20T04:17:34;17.50;;;9.60;;
74908;SDS011;63468;52.058;4.824;2023-05-20T04:20:02;15.05;;;9.20;;
74908;SDS011;63468;52.058;4.824;2023-05-20T04:22:30;13.88;;;8.55;;
74908;SDS011;63468;52.058;4.824;2023-05-20T04:24:56;18.63;;;9.32;;
74908;SDS011;63468;52.058;4.824;2023-05-20T04:27:21;14.95;;;9.70;;
74908;SDS011;63468;52.058;4.824;2023-05-20T04:29:47;15.77;;;10.00;;
74908;SDS011;63468;52.058;4.824;2023-05-20T04:32:13;14.50;;;9.93;;
74908;SDS011;63468;52.058;4.824;2023-05-20T04:34:40;17.45;;;9.45;;
74908;SDS011;63468;52.058;4.824;2023-05-20T04:37:06;18.17;;;10.15;;
74908;SDS011;63468;52.058;4.824;2023-05-20T04:39:34;19.05;;;9.95;;
74908;SDS011;63468;52.058;4.824;2023-05-20T04:42:00;15.00;;;9.30;;
74908;SDS011;63468;52.058;4.824;2023-05-20T04:44:26;13.82;;;9.55;;
74908;SDS011;63468;52.058;4.824;2023-05-20T04:46:52;17.98;;;9.98;;
74908;SDS011;63468;52.058;4.824;2023-05-20T04:49:17;15.20;;;9.20;;
74908;SDS011;63468;52.058;4.824;2023-05-20T04:51:43;16.85;;;9.75;;
74908;SDS011;63468;52.058;4.824;2023-05-20T04:54:08;15.73;;;9.77;;
74908;SDS011;63468;52.058;4.824;2023-05-20T04:56:33;16.83;;;9.63;;
74908;SDS011;63468;52.058;4.824;2023-05-20T04:59:00;12.45;;;9.50;;
74908;SDS011;63468;52.058;4.824;2023-05-20T05:01:25;13.35;;;9.23;;
74908;SDS011;63468;52.058;4.824;2023-05-20T05:03:51;15.07;;;9.75;;
74908;SDS011;63468;52.058;4.824;2023-05-20T05:06:16;13.13;;;9.18;;
74908;SDS011;63468;52.058;4.824;2023-05-20T05:08:42;15.95;;;9.40;;
74908;SDS011;63468;52.058;4.824;2023-05-20T05:11:07;16.30;;;9.07;;
74908;SDS011;63468;52.058;4.824;2023-05-20T05:13:32;13.52;;;10.48;;
74908;SDS011;63468;52.058;4.824;2023-05-20T05:15:58;15.50;;;10.25;;
74908;SDS011;63468;52.058;4.824;2023-05-20T05:18:24;16.08;;;9.50;;
74908;SDS011;63468;52.058;4.824;2023-05-20T05:20:57;19.67;;;10.02;;
74908;SDS011;63468;52.058;4.824;2023-05-20T05:23:23;12.93;;;9.13;;
74908;SDS011;63468;52.058;4.824;2023-05-20T05:25:51;16.83;;;10.50;;
74908;SDS011;63468;52.058;4.824;2023-05-20T05:28:17;12.63;;;9.70;;
74908;SDS011;63468;52.058;4.824;2023-05-20T05:30:42;12.18;;;9.25;;
74908;SDS011;63468;52.058;4.824;2023-05-20T05:33:07;13.80;;;10.40;;
74908;SDS011;63468;52.058;4.824;2023-05-20T05:35:33;13.45;;;11.27;;
74908;SDS011;63468;52.058;4.824;2023-05-20T05:37:58;15.30;;;11.35;;
74908;SDS011;63468;52.058;4.824;2023-05-20T05:40:23;15.13;;;10.73;;
74908;SDS011;63468;52.058;4.824;2023-05-20T05:42:49;16.17;;;11.35;;
74908;SDS011;63468;52.058;4.824;2023-05-20T05:45:14;15.65;;;11.05;;
74908;SDS011;63468;52.058;4.824;2023-05-20T05:47:40;12.07;;;10.18;;
74908;SDS011;63468;52.058;4.824;2023-05-20T05:50:06;16.83;;;10.48;;
74908;SDS011;63468;52.058;4.824;2023-05-20T05:52:31;14.70;;;10.88;;
74908;SDS011;63468;52.058;4.824;2023-05-20T05:54:57;16.17;;;10.93;;
74908;SDS011;63468;52.058;4.824;2023-05-20T05:57:22;13.07;;;10.82;;
74908;SDS011;63468;52.058;4.824;2023-05-20T05:59:47;11.88;;;9.90;;
74908;SDS011;63468;52.058;4.824;2023-05-20T06:02:13;16.20;;;11.30;;
74908;SDS011;63468;52.058;4.824;2023-05-20T06:04:38;10.80;;;9.45;;
74908;SDS011;63468;52.058;4.824;2023-05-20T06:07:04;15.27;;;10.90;;
74908;SDS011;63468;52.058;4.824;2023-05-20T06:09:29;15.32;;;11.10;;
74908;SDS011;63468;52.058;4.824;2023-05-20T06:11:54;19.67;;;11.10;;
74908;SDS011;63468;52.058;4.824;2023-05-20T06:14:20;14.70;;;12.50;;
74908;SDS011;63468;52.058;4.824;2023-05-20T06:16:45;12.77;;;10.75;;
74908;SDS011;63468;52.058;4.824;2023-05-20T06:19:11;12.80;;;10.02;;
74908;SDS011;63468;52.058;4.824;2023-05-20T06:21:36;13.00;;;10.95;;
74908;SDS011;63468;52.058;4.824;2023-05-20T06:24:02;12.48;;;11.13;;
74908;SDS011;63468;52.058;4.824;2023-05-20T06:26:28;16.35;;;11.00;;
74908;SDS011;63468;52.058;4.824;2023-05-20T06:28:53;15.07;;;10.18;;
74908;SDS011;63468;52.058;4.824;2023-05-20T06:31:18;16.45;;;10.48;;
74908;SDS011;63468;52.058;4.824;2023-05-20T06:33:44;14.50;;;10.02;;
74908;SDS011;63468;52.058;4.824;2023-05-20T06:36:09;12.68;;;10.00;;
74908;SDS011;63468;52.058;4.824;2023-05-20T06:38:35;14.68;;;10.13;;
74908;SDS011;63468;52.058;4.824;2023-05-20T06:41:01;15.27;;;10.25;;
74908;SDS011;63468;52.058;4.824;2023-05-20T06:43:26;12.52;;;10.40;;
74908;SDS011;63468;52.058;4.824;2023-05-20T06:45:52;12.20;;;9.93;;
74908;SDS011;63468;52.058;4.824;2023-05-20T06:48:18;15.50;;;10.52;;
74908;SDS011;63468;52.058;4.824;2023-05-20T06:50:43;15.73;;;11.68;;
74908;SDS011;63468;52.058;4.824;2023-05-20T06:53:09;14.98;;;10.45;;
74908;SDS011;63468;52.058;4.824;2023-05-20T06:55:35;15.18;;;10.57;;
74908;SDS011;63468;52.058;4.824;2023-05-20T06:58:01;13.75;;;10.23;;
74908;SDS011;63468;52.058;4.824;2023-05-20T07:00:26;16.92;;;11.25;;
74908;SDS011;63468;52.058;4.824;2023-05-20T07:02:51;13.32;;;11.57;;
74908;SDS011;63468;52.058;4.824;2023-05-20T07:05:17;14.02;;;10.52;;
74908;SDS011;63468;52.058;4.824;2023-05-20T07:07:42;14.52;;;11.00;;
74908;SDS011;63468;52.058;4.824;2023-05-20T07:10:08;13.07;;;10.30;;
74908;SDS011;63468;52.058;4.824;2023-05-20T07:12:33;13.40;;;11.00;;
74908;SDS011;63468;52.058;4.824;2023-05-20T07:14:59;15.43;;;11.23;;
74908;SDS011;63468;52.058;4.824;2023-05-20T07:17:25;12.25;;;9.88;;
74908;SDS011;63468;52.058;4.824;2023-05-20T07:19:51;11.88;;;10.20;;
74908;SDS011;63468;52.058;4.824;2023-05-20T07:22:16;13.10;;;11.13;;
74908;SDS011;63468;52.058;4.824;2023-05-20T07:24:41;13.13;;;10.55;;
74908;SDS011;63468;52.058;4.824;2023-05-20T07:27:07;12.55;;;9.68;;
74908;SDS011;63468;52.058;4.824;2023-05-20T07:29:33;13.13;;;10.63;;
74908;SDS011;63468;52.058;4.824;2023-05-20T07:31:59;12.43;;;9.98;;
74908;SDS011;63468;52.058;4.824;2023-05-20T07:34:25;14.60;;;10.73;;
74908;SDS011;63468;52.058;4.824;2023-05-20T07:36:50;11.90;;;10.20;;
74908;SDS011;63468;52.058;4.824;2023-05-20T07:39:17;12.27;;;9.95;;
74908;SDS011;63468;52.058;4.824;2023-05-20T07:41:42;13.68;;;10.65;;
74908;SDS011;63468;52.058;4.824;2023-05-20T07:44:07;11.93;;;10.27;;
74908;SDS011;63468;52.058;4.824;2023-05-20T07:46:35;12.40;;;10.55;;
74908;SDS011;63468;52.058;4.824;2023-05-20T07:49:02;12.40;;;9.95;;
74908;SDS011;63468;52.058;4.824;2023-05-20T07:51:27;11.32;;;9.98;;
74908;SDS011;63468;52.058;4.824;2023-05-20T07:53:53;14.43;;;11.02;;
74908;SDS011;63468;52.058;4.824;2023-05-20T07:56:18;12.65;;;10.75;;
74908;SDS011;63468;52.058;4.824;2023-05-20T07:58:50;15.13;;;10.57;;
74908;SDS011;63468;52.058;4.824;2023-05-20T08:01:20;13.13;;;11.82;;
74908;SDS011;63468;52.058;4.824;2023-05-20T08:03:45;13.60;;;11.27;;
74908;SDS011;63468;52.058;4.824;2023-05-20T08:06:11;12.15;;;10.90;;
74908;SDS011;63468;52.058;4.824;2023-05-20T08:08:36;16.00;;;10.93;;
74908;SDS011;63468;52.058;4.824;2023-05-20T08:11:04;14.25;;;10.45;;
74908;SDS011;63468;52.058;4.824;2023-05-20T08:13:29;12.30;;;11.10;;
74908;SDS011;63468;52.058;4.824;2023-05-20T08:15:55;12.32;;;11.02;;
74908;SDS011;63468;52.058;4.824;2023-05-20T08:18:20;12.20;;;10.95;;
74908;SDS011;63468;52.058;4.824;2023-05-20T08:20:46;11.98;;;10.77;;
74908;SDS011;63468;52.058;4.824;2023-05-20T08:23:11;11.90;;;9.98;;
74908;SDS011;63468;52.058;4.824;2023-05-20T08:25:37;12.75;;;10.95;;
74908;SDS011;63468;52.058;4.824;2023-05-20T08:28:02;11.70;;;10.50;;
74908;SDS011;63468;52.058;4.824;2023-05-20T08:30:30;11.63;;;10.15;;
74908;SDS011;63468;52.058;4.824;2023-05-20T08:32:55;10.23;;;9.23;;
74908;SDS011;63468;52.058;4.824;2023-05-20T08:35:21;10.80;;;8.88;;
74908;SDS011;63468;52.058;4.824;2023-05-20T08:37:47;10.40;;;9.30;;
74908;SDS011;63468;52.058;4.824;2023-05-20T08:40:13;11.32;;;9.63;;
74908;SDS011;63468;52.058;4.824;2023-05-20T08:42:42;12.48;;;9.30;;
74908;SDS011;63468;52.058;4.824;2023-05-20T08:45:09;14.52;;;9.38;;
74908;SDS011;63468;52.058;4.824;2023-05-20T08:47:36;10.20;;;8.75;;
74908;SDS011;63468;52.058;4.824;2023-05-20T08:50:07;10.07;;;9.02;;
74908;SDS011;63468;52.058;4.824;2023-05-20T08:52:33;10.25;;;9.23;;
74908;SDS011;63468;52.058;4.824;2023-05-20T08:54:59;9.50;;;8.48;;
74908;SDS011;63468;52.058;4.824;2023-05-20T08:57:24;10.68;;;8.82;;
74908;SDS011;63468;52.058;4.824;2023-05-20T08:59:50;11.30;;;9.02;;
74908;SDS011;63468;52.058;4.824;2023-05-20T09:02:15;9.85;;;8.85;;
74908;SDS011;63468;52.058;4.824;2023-05-20T09:04:41;10.82;;;8.77;;
74908;SDS011;63468;52.058;4.824;2023-05-20T09:07:06;13.68;;;8.27;;
74908;SDS011;63468;52.058;4.824;2023-05-20T09:09:32;12.55;;;8.52;;
74908;SDS011;63468;52.058;4.824;2023-05-20T09:11:59;12.20;;;8.48;;
74908;SDS011;63468;52.058;4.824;2023-05-20T09:14:28;10.95;;;9.13;;
74908;SDS011;63468;52.058;4.824;2023-05-20T09:16:54;9.35;;;8.45;;
74908;SDS011;63468;52.058;4.824;2023-05-20T09:19:21;9.73;;;8.80;;
74908;SDS011;63468;52.058;4.824;2023-05-20T09:21:46;11.02;;;9.23;;
74908;SDS011;63468;52.058;4.824;2023-05-20T09:24:12;11.63;;;8.23;;
74908;SDS011;63468;52.058;4.824;2023-05-20T09:26:37;11.23;;;8.90;;
74908;SDS011;63468;52.058;4.824;2023-05-20T09:29:03;10.30;;;9.00;;
74908;SDS011;63468;52.058;4.824;2023-05-20T09:31:31;12.35;;;8.95;;
74908;SDS011;63468;52.058;4.824;2023-05-20T09:33:58;9.55;;;8.60;;
74908;SDS011;63468;52.058;4.824;2023-05-20T09:36:24;10.70;;;8.70;;
74908;SDS011;63468;52.058;4.824;2023-05-20T09:38:53;11.07;;;9.93;;
74908;SDS011;63468;52.058;4.824;2023-05-20T09:41:23;10.30;;;9.30;;
74908;SDS011;63468;52.058;4.824;2023-05-20T09:43:52;9.70;;;8.80;;
74908;SDS011;63468;52.058;4.824;2023-05-20T09:46:18;9.68;;;8.77;;
74908;SDS011;63468;52.058;4.824;2023-05-20T09:48:44;9.90;;;8.90;;
74908;SDS011;63468;52.058;4.824;2023-05-20T09:51:09;9.65;;;8.68;;
74908;SDS011;63468;52.058;4.824;2023-05-20T09:53:35;9.60;;;8.60;;
74908;SDS011;63468;52.058;4.824;2023-05-20T09:56:01;10.95;;;8.88;;
74908;SDS011;63468;52.058;4.824;2023-05-20T09:58:27;10.02;;;8.90;;
74908;SDS011;63468;52.058;4.824;2023-05-20T10:00:53;10.02;;;8.95;;
74908;SDS011;63468;52.058;4.824;2023-05-20T10:03:20;9.45;;;8.55;;
74908;SDS011;63468;52.058;4.824;2023-05-20T10:06:36;9.32;;;8.43;;
74908;SDS011;63468;52.058;4.824;2023-05-20T10:11:46;10.05;;;8.73;;
74908;SDS011;63468;52.058;4.824;2023-05-20T10:17:06;11.93;;;7.80;;
74908;SDS011;63468;52.058;4.824;2023-05-20T10:19:37;10.38;;;8.88;;
74908;SDS011;63468;52.058;4.824;2023-05-20T10:22:03;8.90;;;8.00;;
74908;SDS011;63468;52.058;4.824;2023-05-20T10:24:38;9.68;;;8.65;;
74908;SDS011;63468;52.058;4.824;2023-05-20T10:27:11;9.30;;;8.40;;
74908;SDS011;63468;52.058;4.824;2023-05-20T10:29:49;10.13;;;9.02;;
74908;SDS011;63468;52.058;4.824;2023-05-20T10:32:29;9.88;;;8.93;;
74908;SDS011;63468;52.058;4.824;2023-05-20T10:34:59;9.82;;;8.93;;
74908;SDS011;63468;52.058;4.824;2023-05-20T10:37:26;10.15;;;8.48;;
74908;SDS011;63468;52.058;4.824;2023-05-20T10:40:04;8.73;;;7.50;;
74908;SDS011;63468;52.058;4.824;2023-05-20T10:42:31;8.90;;;8.00;;
74908;SDS011;63468;52.058;4.824;2023-05-20T10:44:56;10.57;;;9.43;;
74908;SDS011;63468;52.058;4.824;2023-05-20T10:47:22;10.43;;;8.27;;
74908;SDS011;63468;52.058;4.824;2023-05-20T10:49:47;10.00;;;8.90;;
74908;SDS011;63468;52.058;4.824;2023-05-20T10:52:13;10.52;;;9.50;;
74908;SDS011;63468;52.058;4.824;2023-05-20T10:54:45;13.55;;;9.65;;
74908;SDS011;63468;52.058;4.824;2023-05-20T10:57:11;9.60;;;8.50;;
74908;SDS011;63468;52.058;4.824;2023-05-20T10:59:37;10.27;;;9.18;;
74908;SDS011;63468;52.058;4.824;2023-05-20T11:02:02;9.45;;;8.55;;
74908;SDS011;63468;52.058;4.824;2023-05-20T11:04:28;10.07;;;9.07;;
74908;SDS011;63468;52.058;4.824;2023-05-20T11:06:54;9.07;;;8.25;;
74908;SDS011;63468;52.058;4.824;2023-05-20T11:09:20;11.82;;;8.85;;
74908;SDS011;63468;52.058;4.824;2023-05-20T11:11:46;10.77;;;9.35;;
74908;SDS011;63468;52.058;4.824;2023-05-20T11:14:11;9.70;;;8.68;;
74908;SDS011;63468;52.058;4.824;2023-05-20T11:16:41;9.20;;;8.30;;
74908;SDS011;63468;52.058;4.824;2023-05-20T11:19:07;9.52;;;8.63;;
74908;SDS011;63468;52.058;4.824;2023-05-20T11:21:33;11.10;;;10.05;;
74908;SDS011;63468;52.058;4.824;2023-05-20T11:23:58;10.45;;;9.45;;
74908;SDS011;63468;52.058;4.824;2023-05-20T11:26:23;10.20;;;8.93;;
74908;SDS011;63468;52.058;4.824;2023-05-20T11:28:48;10.82;;;9.65;;
74908;SDS011;63468;52.058;4.824;2023-05-20T11:31:14;10.63;;;9.52;;
74908;SDS011;63468;52.058;4.824;2023-05-20T11:33:42;11.00;;;8.82;;
74908;SDS011;63468;52.058;4.824;2023-05-20T11:36:08;10.32;;;8.98;;
74908;SDS011;63468;52.058;4.824;2023-05-20T11:38:33;9.07;;;8.13;;
74908;SDS011;63468;52.058;4.824;2023-05-20T11:40:59;10.40;;;9.50;;
74908;SDS011;63468;52.058;4.824;2023-05-20T11:43:24;10.90;;;9.95;;
74908;SDS011;63468;52.058;4.824;2023-05-20T11:45:53;10.63;;;9.63;;
74908;SDS011;63468;52.058;4.824;2023-05-20T11:48:20;9.43;;;8.38;;
74908;SDS011;63468;52.058;4.824;2023-05-20T11:50:46;9.75;;;8.75;;
74908;SDS011;63468;52.058;4.824;2023-05-20T11:53:16;9.35;;;8.45;;
74908;SDS011;63468;52.058;4.824;2023-05-20T11:55:44;11.05;;;8.85;;
74908;SDS011;63468;52.058;4.824;2023-05-20T11:58:20;10.80;;;9.70;;
74908;SDS011;63468;52.058;4.824;2023-05-20T12:00:46;9.82;;;8.82;;
74908;SDS011;63468;52.058;4.824;2023-05-20T12:03:12;8.77;;;7.88;;
74908;SDS011;63468;52.058;4.824;2023-05-20T12:05:37;11.90;;;9.52;;
74908;SDS011;63468;52.058;4.824;2023-05-20T12:08:03;9.80;;;8.32;;
74908;SDS011;63468;52.058;4.824;2023-05-20T12:10:29;13.57;;;9.68;;
74908;SDS011;63468;52.058;4.824;2023-05-20T12:12:55;9.52;;;8.52;;
74908;SDS011;63468;52.058;4.824;2023-05-20T12:15:20;10.65;;;8.68;;
74908;SDS011;63468;52.058;4.824;2023-05-20T12:17:46;9.63;;;8.63;;
74908;SDS011;63468;52.058;4.824;2023-05-20T12:20:16;9.38;;;8.38;;
74908;SDS011;63468;52.058;4.824;2023-05-20T12:22:45;11.90;;;9.27;;
74908;SDS011;63468;52.058;4.824;2023-05-20T12:25:11;9.10;;;8.20;;
74908;SDS011;63468;52.058;4.824;2023-05-20T12:27:38;9.77;;;8.77;;
74908;SDS011;63468;52.058;4.824;2023-05-20T12:30:04;10.57;;;9.00;;
74908;SDS011;63468;52.058;4.824;2023-05-20T12:32:30;11.90;;;8.20;;
74908;SDS011;63468;52.058;4.824;2023-05-20T12:34:55;10.50;;;9.00;;
74908;SDS011;63468;52.058;4.824;2023-05-20T12:37:21;10.38;;;8.50;;
74908;SDS011;63468;52.058;4.824;2023-05-20T12:39:46;10.10;;;8.90;;
74908;SDS011;63468;52.058;4.824;2023-05-20T12:42:11;9.68;;;8.38;;
74908;SDS011;63468;52.058;4.824;2023-05-20T12:44:37;9.95;;;8.98;;
74908;SDS011;63468;52.058;4.824;2023-05-20T12:47:02;10.05;;;8.75;;
74908;SDS011;63468;52.058;4.824;2023-05-20T12:49:27;9.68;;;8.30;;
74908;SDS011;63468;52.058;4.824;2023-05-20T12:51:53;10.10;;;9.02;;
74908;SDS011;63468;52.058;4.824;2023-05-20T12:54:18;10.52;;;8.88;;
74908;SDS011;63468;52.058;4.824;2023-05-20T12:56:43;10.20;;;8.18;;
74908;SDS011;63468;52.058;4.824;2023-05-20T12:59:11;10.70;;;8.50;;
74908;SDS011;63468;52.058;4.824;2023-05-20T13:01:39;11.63;;;8.73;;
74908;SDS011;63468;52.058;4.824;2023-05-20T13:04:05;12.90;;;8.95;;
74908;SDS011;63468;52.058;4.824;2023-05-20T13:06:30;10.00;;;7.88;;
74908;SDS011;63468;52.058;4.824;2023-05-20T13:08:58;9.07;;;8.18;;
74908;SDS011;63468;52.058;4.824;2023-05-20T13:11:23;9.55;;;8.65;;
74908;SDS011;63468;52.058;4.824;2023-05-20T13:13:48;9.80;;;8.13;;
74908;SDS011;63468;52.058;4.824;2023-05-20T13:16:13;8.45;;;7.47;;
74908;SDS011;63468;52.058;4.824;2023-05-20T13:18:41;10.77;;;7.72;;
74908;SDS011;63468;52.058;4.824;2023-05-20T13:21:07;10.93;;;8.25;;
74908;SDS011;63468;52.058;4.824;2023-05-20T13:23:32;11.07;;;8.18;;
74908;SDS011;63468;52.058;4.824;2023-05-20T13:25:58;11.93;;;9.70;;
74908;SDS011;63468;52.058;4.824;2023-05-20T13:28:23;9.40;;;8.18;;
74908;SDS011;63468;52.058;4.824;2023-05-20T13:30:49;11.15;;;8.27;;
74908;SDS011;63468;52.058;4.824;2023-05-20T13:33:14;9.82;;;7.65;;
74908;SDS011;63468;52.058;4.824;2023-05-20T13:35:40;9.73;;;8.45;;
74908;SDS011;63468;52.058;4.824;2023-05-20T13:38:05;10.18;;;9.18;;
74908;SDS011;63468;52.058;4.824;2023-05-20T13:40:30;9.63;;;8.20;;
74908;SDS011;63468;52.058;4.824;2023-05-20T13:42:56;9.43;;;8.40;;
74908;SDS011;63468;52.058;4.824;2023-05-20T13:45:21;8.75;;;7.85;;
74908;SDS011;63468;52.058;4.824;2023-05-20T13:47:47;10.38;;;8.38;;
74908;SDS011;63468;52.058;4.824;2023-05-20T13:50:12;8.82;;;7.93;;
74908;SDS011;63468;52.058;4.824;2023-05-20T13:52:37;9.90;;;8.90;;
74908;SDS011;63468;52.058;4.824;2023-05-20T13:55:03;10.13;;;8.90;;
74908;SDS011;63468;52.058;4.824;2023-05-20T13:57:28;11.77;;;10.52;;
74908;SDS011;63468;52.058;4.824;2023-05-20T13:59:54;10.88;;;9.20;;
74908;SDS011;63468;52.058;4.824;2023-05-20T14:02:19;10.85;;;9.82;;
74908;SDS011;63468;52.058;4.824;2023-05-20T14:04:45;9.73;;;8.80;;
74908;SDS011;63468;52.058;4.824;2023-05-20T14:07:11;9.98;;;8.45;;
74908;SDS011;63468;52.058;4.824;2023-05-20T14:09:36;10.75;;;8.50;;
74908;SDS011;63468;52.058;4.824;2023-05-20T14:12:02;8.75;;;7.80;;
74908;SDS011;63468;52.058;4.824;2023-05-20T14:14:27;9.35;;;7.90;;
74908;SDS011;63468;52.058;4.824;2023-05-20T14:16:53;9.98;;;7.82;;
74908;SDS011;63468;52.058;4.824;2023-05-20T14:19:18;9.00;;;8.10;;
74908;SDS011;63468;52.058;4.824;2023-05-20T14:21:44;9.98;;;8.82;;
74908;SDS011;63468;52.058;4.824;2023-05-20T14:24:09;9.25;;;8.35;;
74908;SDS011;63468;52.058;4.824;2023-05-20T14:26:34;9.30;;;8.35;;
74908;SDS011;63468;52.058;4.824;2023-05-20T14:29:00;10.15;;;9.15;;
74908;SDS011;63468;52.058;4.824;2023-05-20T14:31:25;10.40;;;8.35;;
74908;SDS011;63468;52.058;4.824;2023-05-20T14:33:51;10.80;;;8.15;;